Time;durP1;ratioP1;P1;durP2;ratioP2;P2;SDS_P1;SDS_P2;PMS_P1;PMS_P2;Temp;Humidity;BMP_temperature;BMP_pressure;BME280_temperature;BME280_humidity;BME280_pressure;Samples;Min_cycle;Max_cycle;Signal;HPM_P1;HPM_P2
2022/03/31 00:00:08;;;;;;;5.07;4.30;;;;;;;6.94;59.05;100012.19;5286981;28;20040;-66
2022/03/31 00:02:39;;;;;;;7.10;4.43;;;;;;;7.05;58.75;100016.75;5289722;28;20020;-66
2022/03/31 00:05:11;;;;;;;6.23;4.70;;;;;;;6.99;59.29;100012.75;5285337;28;20040;-66
2022/03/31 00:07:49;;;;;;;6.67;4.73;;;;;;;7.19;58.33;100018.53;5298963;28;20793;-66
2022/03/31 00:10:29;;;;;;;6.83;4.67;;;;;;;6.90;59.45;100013.28;5286217;28;20016;-66
2022/03/31 00:13:04;;;;;;;5.03;4.33;;;;;;;7.01;59.36;100013.50;5289269;28;20078;-66
2022/03/31 00:15:35;;;;;;;4.83;4.33;;;;;;;6.95;59.31;100013.84;5287685;28;20028;-66
2022/03/31 00:18:08;;;;;;;5.17;4.67;;;;;;;7.06;58.87;100022.81;5289548;28;20518;-66
2022/03/31 00:24:08;;;;;;;5.13;4.60;;;;;;;7.18;58.62;100027.31;5287179;28;20145;-66
2022/03/31 00:26:40;;;;;;;5.73;4.57;;;;;;;6.97;58.92;100006.81;5288729;28;20024;-66
2022/03/31 00:29:11;;;;;;;6.70;4.93;;;;;;;7.09;58.98;100027.81;5289519;28;20039;-66
2022/03/31 00:31:42;;;;;;;6.23;4.47;;;;;;;7.09;59.00;100018.25;5288663;28;20080;-66
2022/03/31 00:34:14;;;;;;;5.97;5.30;;;;;;;7.04;59.45;100016.84;5289205;28;20032;-66
2022/03/31 00:36:52;;;;;;;6.37;5.03;;;;;;;7.11;59.24;100021.63;5285951;28;20028;-67
2022/03/31 00:39:29;;;;;;;4.93;4.30;;;;;;;7.15;58.84;100022.28;5288340;28;20058;-69
2022/03/31 00:42:06;;;;;;;6.70;5.60;;;;;;;7.13;59.29;100022.38;5288754;28;20887;-67
2022/03/31 00:44:37;;;;;;;5.90;5.30;;;;;;;7.15;59.19;100017.06;5290198;28;20024;-67
2022/03/31 00:47:09;;;;;;;5.87;4.80;;;;;;;7.07;59.26;100014.09;5286759;28;20035;-68
2022/03/31 00:49:40;;;;;;;6.83;6.10;;;;;;;7.00;59.32;100009.22;5289107;28;20051;-68
2022/03/31 00:52:12;;;;;;;6.80;5.80;;;;;;;7.16;59.14;100010.91;5287437;28;20453;-67
2022/03/31 00:54:43;;;;;;;6.97;6.10;;;;;;;7.07;59.29;100014.91;5287867;28;20047;-67
2022/03/31 00:57:15;;;;;;;7.60;5.97;;;;;;;7.02;59.76;100016.94;5282777;28;20033;-68
2022/03/31 00:59:47;;;;;;;9.93;6.83;;;;;;;6.96;59.96;100014.69;5289401;28;20036;-67
2022/03/31 01:02:18;;;;;;;8.13;6.40;;;;;;;6.97;59.80;100016.38;5267185;22;20256;-67
2022/03/31 01:04:51;;;;;;;7.30;6.43;;;;;;;6.99;60.42;100014.53;5230458;28;20483;-67
2022/03/31 01:07:22;;;;;;;8.10;7.20;;;;;;;6.84;60.44;100008.44;5224455;28;20061;-67
2022/03/31 01:09:56;;;;;;;11.50;7.77;;;;;;;6.89;60.66;100009.03;5225649;28;20163;-67
2022/03/31 01:12:28;;;;;;;11.35;7.60;;;;;;;6.95;60.04;100000.84;5207793;28;20026;-68
2022/03/31 01:15:09;;;;;;;8.27;6.43;;;;;;;7.04;59.87;100002.06;5223282;28;20029;-68
2022/03/31 01:17:43;;;;;;;10.77;7.77;;;;;;;6.97;60.33;100003.34;5207379;28;20491;-67
2022/03/31 01:20:19;;;;;;;8.55;7.10;;;;;;;6.79;61.06;99995.69;5224952;28;20029;-67
2022/03/31 01:22:51;;;;;;;10.13;8.07;;;;;;;6.85;60.84;99991.88;5224984;28;20089;-67
2022/03/31 01:25:22;;;;;;;10.03;7.80;;;;;;;6.72;61.15;99989.19;5225933;28;20036;-67
2022/03/31 01:27:54;;;;;;;17.57;8.50;;;;;;;6.63;61.63;99985.34;5224013;28;20026;-67
2022/03/31 01:30:25;;;;;;;9.87;8.47;;;;;;;6.71;61.48;99985.72;5224108;28;20105;-67
2022/03/31 01:32:57;;;;;;;11.23;8.40;;;;;;;6.60;61.93;99980.28;5226261;28;20040;-65
2022/03/31 01:35:28;;;;;;;10.07;8.13;;;;;;;6.76;61.83;99988.06;5224959;28;20029;-65
2022/03/31 01:38:00;;;;;;;10.63;8.07;;;;;;;6.76;62.10;99980.25;5225191;28;20561;-65
2022/03/31 01:40:31;;;;;;;9.17;7.20;;;;;;;6.75;63.86;99984.63;5226156;28;20053;-65
2022/03/31 01:43:02;;;;;;;9.00;7.87;;;;;;;6.77;63.42;99982.75;5225127;28;20021;-64
2022/03/31 01:45:34;;;;;;;11.43;7.93;;;;;;;6.71;63.14;99975.31;5224708;28;20075;-65
2022/03/31 01:48:06;;;;;;;12.20;8.57;;;;;;;6.59;65.41;99978.63;5225137;28;20029;-64
2022/03/31 01:50:37;;;;;;;10.03;7.97;;;;;;;6.73;63.74;99968.25;5225933;28;20025;-65
2022/03/31 01:53:09;;;;;;;10.30;8.07;;;;;;;6.66;64.32;99964.34;5225183;28;20037;-65
2022/03/31 01:55:40;;;;;;;10.80;8.93;;;;;;;6.78;63.50;99968.00;5225754;28;20133;-65
2022/03/31 01:58:12;;;;;;;13.33;8.37;;;;;;;6.72;63.99;99965.75;5224844;28;20588;-65
2022/03/31 02:00:44;;;;;;;12.67;8.63;;;;;;;6.76;64.14;99973.28;5227787;28;20036;-65
2022/03/31 02:03:15;;;;;;;11.53;8.47;;;;;;;6.61;64.79;99967.22;5228648;28;20060;-65
2022/03/31 02:05:46;;;;;;;11.40;9.40;;;;;;;6.57;65.79;99959.66;5229379;28;20060;-65
2022/03/31 02:08:18;;;;;;;11.17;9.43;;;;;;;6.48;66.33;99956.66;5229221;28;20025;-64
2022/03/31 02:10:50;;;;;;;14.07;9.93;;;;;;;6.31;65.90;99931.59;5229884;28;20064;-64
2022/03/31 02:13:21;;;;;;;14.43;9.17;;;;;;;6.45;66.40;99951.63;5229196;28;20029;-65
2022/03/31 02:15:54;;;;;;;14.20;10.70;;;;;;;6.59;66.63;99952.59;5228658;28;20017;-65
2022/03/31 02:18:25;;;;;;;15.47;11.70;;;;;;;6.49;67.10;99950.50;5228632;28;20079;-64
2022/03/31 02:20:57;;;;;;;13.23;10.73;;;;;;;6.26;69.00;99936.22;5211345;28;20112;-66
2022/03/31 02:23:28;;;;;;;14.57;11.77;;;;;;;6.33;67.72;99936.72;5228299;28;20740;-66
2022/03/31 02:26:00;;;;;;;13.00;11.07;;;;;;;6.34;67.67;99939.22;5212029;28;20483;-66
2022/03/31 02:28:31;;;;;;;12.20;10.60;;;;;;;6.20;68.50;99933.97;5228567;28;20049;-65
2022/03/31 02:31:02;;;;;;;14.47;11.83;;;;;;;6.19;68.38;99937.50;5229506;28;20476;-66
2022/03/31 02:33:33;;;;;;;15.33;11.87;;;;;;;6.39;67.27;99942.41;5230762;28;20030;-65
2022/03/31 02:36:07;;;;;;;16.90;11.40;;;;;;;6.28;67.63;99934.38;5212351;28;20029;-65
2022/03/31 02:38:38;;;;;;;14.07;11.40;;;;;;;6.27;67.58;99938.75;5230567;28;20578;-66
2022/03/31 02:41:10;;;;;;;14.57;11.50;;;;;;;6.22;67.76;99935.56;5229724;28;20060;-66
2022/03/31 02:43:41;;;;;;;16.27;10.30;;;;;;;6.18;68.50;99928.84;5230130;28;20030;-66
2022/03/31 02:46:12;;;;;;;13.83;10.20;;;;;;;6.18;68.67;99928.84;5228764;28;20499;-65
2022/03/31 02:48:43;;;;;;;10.80;9.07;;;;;;;6.12;68.84;99931.81;5230236;28;20714;-65
2022/03/31 02:51:15;;;;;;;11.43;9.57;;;;;;;6.13;68.24;99930.88;5230158;28;20037;-66
2022/03/31 02:56:36;;;;;;;12.17;8.03;;;;;;;6.13;69.37;99925.66;5229788;28;20041;-65
2022/03/31 02:59:08;;;;;;;9.00;8.03;;;;;;;5.93;71.34;99923.22;5229262;28;20056;-66
2022/03/31 03:01:41;;;;;;;9.60;7.50;;;;;;;6.05;71.41;99921.75;5229081;28;20073;-66
2022/03/31 03:04:13;;;;;;;11.37;8.20;;;;;;;6.00;71.89;99923.75;5211720;28;20036;-66
2022/03/31 03:06:44;;;;;;;9.63;7.60;;;;;;;5.92;72.45;99926.75;5231398;28;20121;-65
2022/03/31 03:09:16;;;;;;;10.27;8.63;;;;;;;5.61;74.37;99915.44;5234398;28;20474;-66
2022/03/31 03:11:47;;;;;;;10.00;8.40;;;;;;;5.83;73.25;99916.84;5229440;28;20029;-66
2022/03/31 03:14:18;;;;;;;9.47;7.63;;;;;;;5.84;73.33;99905.56;5229766;28;20107;-65
2022/03/31 03:16:49;;;;;;;12.13;8.97;;;;;;;5.71;73.92;99907.97;5228682;28;20029;-65
2022/03/31 03:19:21;;;;;;;8.70;7.20;;;;;;;5.70;73.86;99901.13;5229815;28;20131;-65
2022/03/31 03:21:52;;;;;;;9.03;7.23;;;;;;;5.68;73.88;99906.41;5211305;28;20055;-65
2022/03/31 03:24:23;;;;;;;6.70;6.00;;;;;;;5.77;72.88;99910.25;5229303;28;20439;-65
2022/03/31 03:26:54;;;;;;;6.80;5.27;;;;;;;5.71;73.41;99915.78;5228753;28;20464;-66
2022/03/31 03:29:26;;;;;;;5.50;5.00;;;;;;;5.53;73.80;99909.81;5229242;28;20045;-66
2022/03/31 03:31:57;;;;;;;7.90;5.10;;;;;;;5.62;73.88;99911.91;5228565;28;20021;-66
2022/03/31 03:34:28;;;;;;;6.80;5.27;;;;;;;5.40;73.92;99907.03;5229841;28;20032;-65
2022/03/31 03:37:00;;;;;;;5.43;4.47;;;;;;;5.57;72.83;99906.13;5229030;28;20095;-66
2022/03/31 03:39:31;;;;;;;4.73;4.27;;;;;;;5.42;72.99;99894.81;5228943;28;20060;-66
2022/03/31 03:42:02;;;;;;;4.77;3.93;;;;;;;5.44;73.45;99896.41;5229070;28;20040;-66
2022/03/31 03:44:35;;;;;;;4.20;3.80;;;;;;;5.36;73.37;99900.34;5210482;28;20124;-66
2022/03/31 03:47:06;;;;;;;5.53;4.17;;;;;;;5.35;72.97;99903.84;5228599;28;20033;-65
2022/03/31 03:49:37;;;;;;;3.97;3.27;;;;;;;5.31;73.20;99906.59;5202254;28;20754;-65
2022/03/31 03:52:09;;;;;;;3.77;3.27;;;;;;;5.20;73.03;99903.75;5229131;28;20025;-65
2022/03/31 03:54:40;;;;;;;4.37;2.30;;;;;;;5.01;73.45;99911.66;5229133;28;20523;-65
2022/03/31 03:57:11;;;;;;;2.73;2.20;;;;;;;5.02;73.52;99911.56;5227743;28;20033;-66
2022/03/31 03:59:43;;;;;;;2.30;2.07;;;;;;;4.71;74.12;99913.16;5227329;28;20036;-66
2022/03/31 04:02:14;;;;;;;2.93;2.00;;;;;;;4.93;73.24;99907.69;5227968;28;20049;-66
2022/03/31 04:04:46;;;;;;;2.80;2.30;;;;;;;4.75;74.20;99913.81;5229138;28;20317;-66
2022/03/31 04:07:17;;;;;;;2.73;2.20;;;;;;;4.72;75.14;99920.84;5228969;28;20037;-66
2022/03/31 04:09:48;;;;;;;3.20;2.37;;;;;;;4.57;74.78;99913.81;5228098;28;20025;-66
2022/03/31 04:12:19;;;;;;;3.07;2.70;;;;;;;4.75;76.52;99924.22;5229491;28;20080;-66
2022/03/31 04:14:51;;;;;;;3.20;2.70;;;;;;;4.76;76.24;99899.94;5230954;28;20669;-66
2022/03/31 04:17:22;;;;;;;3.30;2.70;;;;;;;4.79;76.48;99923.97;5229799;28;20595;-66
2022/03/31 04:19:54;;;;;;;3.10;2.37;;;;;;;4.74;76.43;99918.16;5208995;28;20116;-66
2022/03/31 04:22:25;;;;;;;3.03;2.20;;;;;;;4.65;77.19;99910.84;5228262;28;20049;-66
2022/03/31 04:24:56;;;;;;;3.80;2.93;;;;;;;4.65;76.92;99922.06;5227591;28;20079;-66
2022/03/31 04:27:29;;;;;;;2.73;2.47;;;;;;;4.53;78.47;99918.31;5227853;28;20026;-66
2022/03/31 04:30:05;;;;;;;4.03;2.40;;;;;;;4.42;79.74;99918.84;5227175;28;20422;-66
2022/03/31 04:32:37;;;;;;;3.47;2.40;;;;;;;4.44;81.81;99916.19;5227518;28;20450;-66
2022/03/31 04:35:10;;;;;;;2.20;2.00;;;;;;;4.51;78.78;99930.53;5228159;28;20057;-66
2022/03/31 04:37:42;;;;;;;3.30;2.80;;;;;;;4.27;80.24;99924.78;5227462;28;20017;-66
2022/03/31 04:40:14;;;;;;;3.07;2.47;;;;;;;4.53;79.60;99923.50;5227919;28;20032;-66
2022/03/31 04:42:46;;;;;;;3.53;2.17;;;;;;;4.41;79.44;99929.28;5227035;28;20028;-66
2022/03/31 04:45:17;;;;;;;3.00;2.40;;;;;;;4.27;81.66;99933.41;5227546;28;20262;-65
2022/03/31 04:47:48;;;;;;;2.67;2.00;;;;;;;4.32;79.79;99925.41;5227890;28;20018;-66
2022/03/31 04:50:20;;;;;;;2.20;1.80;;;;;;;4.32;79.84;99925.41;5227617;28;20030;-66
2022/03/31 04:52:51;;;;;;;2.33;1.77;;;;;;;4.32;80.04;99926.25;5227378;28;20068;-66
2022/03/31 04:55:23;;;;;;;1.50;1.40;;;;;;;4.09;79.72;99919.56;5231909;28;20029;-67
2022/03/31 04:57:55;;;;;;;2.10;1.60;;;;;;;4.08;81.99;99934.28;5230088;28;20029;-66
2022/03/31 05:00:26;;;;;;;2.43;1.80;;;;;;;3.98;80.54;99933.00;5226756;28;20049;-66
2022/03/31 05:02:59;;;;;;;1.47;1.37;;;;;;;3.91;81.86;99926.47;5226725;28;20038;-67
2022/03/31 05:05:30;;;;;;;1.93;1.50;;;;;;;3.97;81.28;99926.16;5230818;28;20017;-67
2022/03/31 05:08:02;;;;;;;2.30;1.97;;;;;;;4.00;81.72;99931.19;5211528;28;20114;-67
2022/03/31 05:10:34;;;;;;;2.67;1.33;;;;;;;3.91;81.16;99926.47;5227502;28;20500;-66
2022/03/31 05:13:05;;;;;;;2.63;1.80;;;;;;;3.82;81.47;99922.56;5226147;28;20030;-67
2022/03/31 05:15:37;;;;;;;1.90;1.37;;;;;;;3.92;80.68;99931.56;5226326;28;20032;-67
2022/03/31 05:18:08;;;;;;;4.00;1.67;;;;;;;3.80;81.39;99939.91;5226094;28;20025;-66
2022/03/31 05:20:40;;;;;;;3.40;1.80;;;;;;;3.80;81.28;99927.81;5227935;28;20029;-66
2022/03/31 05:23:12;;;;;;;3.23;2.30;;;;;;;3.79;81.26;99930.47;5226667;28;20033;-66
2022/03/31 05:25:44;;;;;;;3.10;2.00;;;;;;;3.81;80.37;99929.47;5211148;28;20058;-67
2022/03/31 05:28:16;;;;;;;2.07;1.60;;;;;;;3.65;80.46;99925.91;5222496;28;20516;-66
2022/03/31 05:30:47;;;;;;;4.57;2.10;;;;;;;3.63;82.00;99932.00;5223637;28;20025;-66
2022/03/31 05:33:19;;;;;;;4.10;1.77;;;;;;;3.55;81.85;99928.91;5225898;28;20037;-65
2022/03/31 05:35:50;;;;;;;3.03;1.90;;;;;;;3.46;81.61;99934.50;5226110;28;20117;-66
2022/03/31 05:38:22;;;;;;;2.33;1.70;;;;;;;3.40;82.09;99938.22;5231051;28;20117;-67
2022/03/31 05:40:53;;;;;;;3.73;1.50;;;;;;;3.35;80.00;99922.88;5229936;28;20030;-66
2022/03/31 05:43:24;;;;;;;2.63;1.70;;;;;;;3.44;81.98;99928.56;5223843;28;20029;-67
2022/03/31 05:45:56;;;;;;;2.70;1.43;;;;;;;3.18;82.40;99941.75;5214491;28;20197;-67
2022/03/31 05:48:28;;;;;;;6.10;1.90;;;;;;;3.26;81.52;99938.84;5200541;28;20040;-69
2022/03/31 05:50:59;;;;;;;1.90;1.40;;;;;;;3.17;82.09;99941.81;5218646;28;20091;-67
2022/03/31 05:53:30;;;;;;;2.83;2.00;;;;;;;3.23;82.93;99937.19;5220386;28;20044;-66
2022/03/31 05:56:02;;;;;;;2.83;1.83;;;;;;;3.23;81.81;99937.19;5215700;28;20043;-66
2022/03/31 05:58:34;;;;;;;2.77;1.87;;;;;;;3.18;81.82;99922.81;5220317;28;20072;-67
2022/03/31 06:01:05;;;;;;;3.87;1.50;;;;;;;3.06;82.67;99940.53;5218224;28;20032;-67
2022/03/31 06:03:37;;;;;;;2.93;1.50;;;;;;;3.13;82.80;99931.59;5219846;28;20486;-66
2022/03/31 06:06:08;;;;;;;2.00;1.63;;;;;;;2.99;82.68;99937.38;5198748;28;20038;-66
2022/03/31 06:08:40;;;;;;;2.40;1.70;;;;;;;3.04;83.66;99926.00;5219549;28;20040;-67
2022/03/31 06:11:11;;;;;;;2.60;2.00;;;;;;;2.93;85.15;99922.13;5219885;28;20770;-66
2022/03/31 06:13:42;;;;;;;1.73;1.53;;;;;;;3.05;83.43;99928.50;5218941;28;20559;-67
2022/03/31 06:16:14;;;;;;;2.03;1.73;;;;;;;2.98;83.96;99927.09;5215093;28;20171;-65
2022/03/31 06:18:45;;;;;;;3.93;1.73;;;;;;;3.05;82.32;99933.69;5218171;28;20483;-66
2022/03/31 06:21:17;;;;;;;2.43;2.17;;;;;;;3.07;84.01;99931.84;5222180;28;20044;-66
2022/03/31 06:23:48;;;;;;;3.20;1.97;;;;;;;3.06;84.06;99932.75;5220443;28;20037;-66
2022/03/31 06:26:20;;;;;;;1.80;1.57;;;;;;;2.99;84.85;99937.38;5213373;28;20575;-66
2022/03/31 06:28:51;;;;;;;1.60;1.50;;;;;;;2.95;84.24;99940.16;5219060;28;20030;-66
2022/03/31 06:31:23;;;;;;;2.10;1.80;;;;;;;2.85;85.24;99937.09;5217863;28;20057;-67
2022/03/31 06:33:54;;;;;;;1.83;1.37;;;;;;;2.96;84.19;99940.09;5219330;28;20037;-68
2022/03/31 06:36:26;;;;;;;2.40;2.00;;;;;;;2.92;87.39;99940.25;5216454;28;20043;-67
2022/03/31 06:38:57;;;;;;;2.50;2.03;;;;;;;2.97;86.95;99946.09;5218277;28;20037;-67
2022/03/31 06:41:29;;;;;;;2.30;2.10;;;;;;;3.02;84.68;99944.13;5219449;28;20041;-67
2022/03/31 06:44:00;;;;;;;2.60;1.97;;;;;;;2.77;86.77;99946.03;5217371;28;20025;-67
2022/03/31 06:46:32;;;;;;;2.83;2.53;;;;;;;2.97;86.04;99946.94;5215983;28;20108;-66
2022/03/31 06:49:03;;;;;;;2.57;2.37;;;;;;;2.92;86.44;99943.69;5218342;28;20503;-67
2022/03/31 06:51:35;;;;;;;2.40;2.20;;;;;;;2.99;86.40;99944.28;5217374;28;20041;-68
2022/03/31 06:54:06;;;;;;;2.13;1.80;;;;;;;3.04;86.08;99946.69;5217757;28;20037;-67
2022/03/31 06:56:38;;;;;;;2.80;2.50;;;;;;;3.05;85.66;99943.19;5213919;28;20114;-67
2022/03/31 06:59:09;;;;;;;2.40;2.17;;;;;;;3.12;85.76;99950.63;5217973;28;20067;-68
2022/03/31 07:01:40;;;;;;;2.27;2.07;;;;;;;3.08;86.36;99948.22;5218047;28;20049;-68
2022/03/31 07:04:11;;;;;;;2.57;2.17;;;;;;;3.12;86.85;99950.63;5216766;28;20340;-66
2022/03/31 07:06:43;;;;;;;3.97;2.60;;;;;;;3.02;87.15;99946.72;5198705;28;20025;-70
2022/03/31 07:09:14;;;;;;;3.87;2.43;;;;;;;3.09;86.71;99940.38;5199858;28;20096;-70
2022/03/31 07:11:45;;;;;;;3.83;2.70;;;;;;;3.10;86.89;99942.09;5217469;28;20743;-70
2022/03/31 07:14:17;;;;;;;2.87;2.60;;;;;;;3.08;87.01;99940.47;5215729;28;20199;-69
2022/03/31 07:16:48;;;;;;;4.10;3.20;;;;;;;2.89;87.61;99934.34;5215984;28;20041;-70
2022/03/31 07:19:19;;;;;;;2.60;2.40;;;;;;;3.08;89.39;99943.03;5217373;28;20542;-69
2022/03/31 07:21:51;;;;;;;2.37;2.17;;;;;;;3.18;86.73;99943.50;5218568;28;20037;-69
2022/03/31 07:24:23;;;;;;;3.10;2.80;;;;;;;3.24;88.57;99938.91;5181293;28;20030;-68
2022/03/31 07:26:54;;;;;;;3.20;2.90;;;;;;;3.07;87.17;99939.59;5217066;28;20503;-70
2022/03/31 07:29:25;;;;;;;2.67;2.43;;;;;;;3.07;87.36;99939.59;5215041;28;20128;-69
2022/03/31 07:31:57;;;;;;;3.20;2.90;;;;;;;3.17;88.76;99934.03;5218227;28;20472;-69
2022/03/31 07:34:28;;;;;;;2.57;2.37;;;;;;;3.18;86.66;99949.50;5215664;28;20033;-69
2022/03/31 07:37:00;;;;;;;3.37;3.07;;;;;;;3.07;87.95;99942.19;5226936;28;20118;-69
2022/03/31 07:39:33;;;;;;;2.80;2.50;;;;;;;3.10;86.63;99952.44;5226077;28;20126;-69
2022/03/31 07:42:04;;;;;;;4.60;2.70;;;;;;;3.01;86.20;99939.88;5227164;28;20107;-70
2022/03/31 07:44:36;;;;;;;2.73;2.43;;;;;;;3.04;87.47;99944.91;5224108;28;20021;-70
2022/03/31 07:47:08;;;;;;;5.20;4.63;;;;;;;2.98;87.79;99947.78;5228259;28;20080;-70
2022/03/31 07:49:39;;;;;;;4.00;3.20;;;;;;;2.99;88.26;99942.53;5231578;28;20584;-71
2022/03/31 07:52:10;;;;;;;3.70;3.30;;;;;;;3.07;87.48;99946.56;5212462;28;20053;-72
2022/03/31 07:54:42;;;;;;;4.80;4.03;;;;;;;2.98;88.54;99943.47;5225885;28;20034;-72
2022/03/31 07:57:13;;;;;;;4.13;3.73;;;;;;;3.09;88.41;99947.34;5226806;28;20025;-72
2022/03/31 07:59:45;;;;;;;3.20;2.60;;;;;;;3.12;87.67;99950.63;5227680;28;20053;-72
2022/03/31 08:02:16;;;;;;;2.70;2.50;;;;;;;3.21;88.76;99945.97;5226997;28;20049;-72
2022/03/31 08:04:48;;;;;;;3.40;3.03;;;;;;;3.09;89.84;99942.97;5208602;28;20030;-73
2022/03/31 08:07:19;;;;;;;3.90;2.90;;;;;;;3.14;88.39;99942.81;5227432;28;20029;-73
2022/03/31 08:09:50;;;;;;;2.73;2.20;;;;;;;3.13;88.83;99938.50;5228189;28;20025;-72
2022/03/31 08:12:22;;;;;;;2.90;2.60;;;;;;;3.25;90.02;99942.31;5228199;28;20116;-72
2022/03/31 08:14:53;;;;;;;3.83;2.07;;;;;;;3.29;88.56;99937.84;5205994;28;20029;-72
2022/03/31 08:17:24;;;;;;;2.17;1.97;;;;;;;3.18;88.18;99927.97;5227981;28;20029;-72
2022/03/31 08:19:56;;;;;;;2.80;2.23;;;;;;;3.21;91.11;99933.03;5227928;28;20087;-72
2022/03/31 08:22:27;;;;;;;3.60;2.10;;;;;;;3.12;90.17;99937.69;5209605;28;20037;-71
2022/03/31 08:24:59;;;;;;;2.37;2.13;;;;;;;3.29;90.83;99930.94;5224437;28;20033;-72
2022/03/31 08:27:32;;;;;;;2.20;2.00;;;;;;;3.23;90.12;99934.63;5227749;28;20586;-72
2022/03/31 08:30:05;;;;;;;2.57;2.37;;;;;;;3.25;89.81;99929.38;5226556;28;20029;-72
2022/03/31 08:32:39;;;;;;;2.60;2.40;;;;;;;3.34;90.32;99934.16;5210172;28;20033;-72
2022/03/31 08:35:11;;;;;;;2.42;2.22;;;;;;;3.37;90.16;99934.00;5202759;28;20665;-73
2022/03/31 08:37:42;;;;;;;2.50;2.20;;;;;;;3.50;91.05;99936.91;5226176;28;20029;-73
2022/03/31 08:40:14;;;;;;;5.43;2.00;;;;;;;3.35;90.04;99933.22;5226171;28;20038;-72
2022/03/31 08:42:46;;;;;;;2.83;2.30;;;;;;;3.49;90.82;99936.97;5226938;28;20041;-72
2022/03/31 08:45:20;;;;;;;2.47;2.27;;;;;;;3.41;89.87;99941.63;5228666;28;20034;-72
2022/03/31 08:47:53;;;;;;;;;;;;;;;3.72;87.87;99942.84;5228205;28;20025;-72
2022/03/31 08:50:25;;;;;;;3.60;2.30;;;;;;;3.61;89.11;99945.94;5226736;28;19940;-72
2022/03/31 08:52:56;;;;;;;4.80;2.60;;;;;;;3.49;89.35;99937.78;5228068;28;20034;-72
2022/03/31 08:55:28;;;;;;;4.20;3.37;;;;;;;3.51;89.43;99945.50;5223867;28;20108;-72
2022/03/31 08:57:59;;;;;;;5.73;3.63;;;;;;;3.47;90.91;99949.13;5226760;28;20080;-72
2022/03/31 09:00:30;;;;;;;3.63;3.03;;;;;;;3.54;90.13;99947.13;5225947;28;20124;-72
2022/03/31 09:03:05;;;;;;;4.10;3.03;;;;;;;3.69;91.07;99945.56;5227572;28;20077;-72
2022/03/31 09:05:40;;;;;;;3.53;2.95;;;;;;;3.67;90.22;99944.78;5207425;28;20033;-72
2022/03/31 09:08:14;;;;;;;3.23;2.57;;;;;;;3.58;90.89;99946.91;5226105;28;20029;-72
2022/03/31 09:10:48;;;;;;;2.80;2.60;;;;;;;3.67;91.78;99955.16;5227232;28;20520;-72
2022/03/31 09:13:21;;;;;;;2.80;2.47;;;;;;;3.70;91.12;99950.69;5226326;28;20033;-73
2022/03/31 09:15:57;;;;;;;3.83;2.67;;;;;;;3.75;91.12;99953.09;5223913;28;20029;-72
2022/03/31 09:18:31;;;;;;;3.37;2.93;;;;;;;3.76;90.36;99939.22;5226765;28;20064;-72
2022/03/31 09:21:04;;;;;;;3.43;3.13;;;;;;;3.81;90.27;99946.75;5233651;28;20029;-72
2022/03/31 09:23:44;;;;;;;3.55;2.60;;;;;;;3.90;90.50;99945.50;5227083;28;20044;-72
2022/03/31 09:26:17;;;;;;;2.53;2.33;;;;;;;3.89;89.87;99954.19;5223869;28;20459;-72
2022/03/31 09:28:50;;;;;;;3.20;2.73;;;;;;;3.91;90.29;99948.00;5225117;28;20037;-72
2022/03/31 09:31:25;;;;;;;3.77;2.83;;;;;;;3.92;89.61;99944.53;5226311;28;20095;-73
2022/03/31 09:33:58;;;;;;;5.20;3.00;;;;;;;3.86;92.07;99950.81;5226654;28;20585;-72
2022/03/31 09:36:29;;;;;;;2.80;2.50;;;;;;;3.96;90.85;99960.78;5207035;28;20025;-72
2022/03/31 09:39:05;;;;;;;4.40;3.13;;;;;;;4.02;89.48;99963.06;5226288;28;20040;-72
2022/03/31 09:41:38;;;;;;;3.50;2.87;;;;;;;4.00;91.17;99959.69;5226738;28;20034;-72
2022/03/31 09:44:15;;;;;;;3.83;3.27;;;;;;;3.97;92.23;99954.66;5225475;28;20040;-72
2022/03/31 09:46:48;;;;;;;3.43;2.77;;;;;;;4.07;90.43;99955.91;5225630;28;20614;-72
2022/03/31 09:49:21;;;;;;;3.77;2.83;;;;;;;4.19;89.37;99957.09;5226530;28;20519;-72
2022/03/31 09:51:53;;;;;;;4.57;2.70;;;;;;;4.08;89.17;99957.63;5226464;28;20037;-72
2022/03/31 09:54:26;;;;;;;3.73;2.60;;;;;;;4.00;88.13;99957.09;5224184;28;20033;-73
2022/03/31 09:57:00;;;;;;;3.33;2.80;;;;;;;3.91;88.80;99960.16;5218307;28;20135;-72
2022/03/31 09:59:33;;;;;;;3.30;2.70;;;;;;;4.05;88.33;99955.13;5231951;28;20026;-72
2022/03/31 10:02:06;;;;;;;3.47;3.03;;;;;;;3.86;87.79;99947.38;5226972;28;20049;-72
2022/03/31 10:04:39;;;;;;;5.60;3.57;;;;;;;3.91;87.23;99953.19;5223913;28;20488;-72
2022/03/31 10:07:10;;;;;;;5.43;3.40;;;;;;;3.91;89.16;99953.19;5226071;28;20076;-72
2022/03/31 10:09:44;;;;;;;5.63;3.43;;;;;;;4.10;89.70;99952.34;5226130;28;20018;-72
2022/03/31 10:12:42;;;;;;;4.32;3.42;;;;;;;4.08;89.32;99944.66;5226552;28;20018;-72
2022/03/31 10:15:28;;;;;;;5.60;3.67;;;;;;;4.14;88.98;99940.91;5222975;28;20032;-72
2022/03/31 10:17:59;;;;;;;4.20;3.30;;;;;;;4.16;90.19;99940.84;5225482;28;20032;-72
2022/03/31 10:20:31;;;;;;;3.13;2.80;;;;;;;4.14;88.82;99948.69;5227583;28;20858;-72
2022/03/31 10:25:53;;;;;;;3.67;3.03;;;;;;;4.23;88.85;99948.25;5225095;28;20021;-72
2022/03/31 10:28:24;;;;;;;3.60;2.83;;;;;;;4.30;90.61;99948.81;5228386;28;20475;-72
2022/03/31 10:31:03;;;;;;;3.90;2.83;;;;;;;4.44;89.48;99952.47;5229961;28;20034;-67
2022/03/31 10:33:42;;;;;;;3.93;2.43;;;;;;;4.46;89.03;99955.84;5231937;28;20108;-70
2022/03/31 10:36:15;;;;;;;2.93;2.63;;;;;;;4.36;87.98;99951.09;5225891;28;20040;-69
2022/03/31 10:38:57;;;;;;;6.53;3.10;;;;;;;4.33;90.99;99948.66;5229389;28;20026;-67
2022/03/31 10:41:30;;;;;;;3.33;3.00;;;;;;;4.40;88.68;99945.78;5235102;28;20113;-68
2022/03/31 10:44:22;;;;;;;3.53;2.90;;;;;;;4.38;89.62;99945.81;5230268;28;20056;-69
2022/03/31 10:47:02;;;;;;;3.63;3.20;;;;;;;4.51;89.84;99940.03;5228218;28;20068;-71
2022/03/31 10:49:35;;;;;;;5.50;3.40;;;;;;;4.49;88.73;99942.72;5227339;28;20103;-70
2022/03/31 10:52:16;;;;;;;3.67;2.70;;;;;;;4.54;88.66;99943.34;5229596;28;20029;-70
2022/03/31 10:54:47;;;;;;;3.17;2.87;;;;;;;4.58;88.10;99937.09;5226657;28;20029;-70
2022/03/31 10:57:19;;;;;;;2.87;2.47;;;;;;;4.74;87.08;99940.66;5231519;28;20555;-69
2022/03/31 10:59:50;;;;;;;4.63;3.43;;;;;;;4.80;87.81;99936.00;5228193;28;20051;-70
2022/03/31 11:02:23;;;;;;;5.60;3.20;;;;;;;4.69;89.21;99939.16;5229307;28;20041;-70
2022/03/31 11:04:58;;;;;;;3.50;3.00;;;;;;;4.80;89.15;99936.00;5209287;28;20037;-72
2022/03/31 11:07:29;;;;;;;4.27;3.30;;;;;;;4.82;87.35;99936.78;5229989;28;20191;-71
2022/03/31 11:10:09;;;;;;;3.17;2.80;;;;;;;4.68;86.94;99931.44;5227869;28;20028;-72
2022/03/31 11:12:41;;;;;;;3.80;2.50;;;;;;;4.77;87.49;99936.16;5228692;28;20022;-69
2022/03/31 11:15:16;;;;;;;4.03;3.43;;;;;;;4.67;85.92;99934.94;5225333;28;20042;-69
2022/03/31 11:17:48;;;;;;;3.50;2.93;;;;;;;4.76;87.06;99936.25;5227587;28;20017;-69
2022/03/31 11:20:22;;;;;;;2.70;2.30;;;;;;;4.76;85.79;99928.47;5226817;28;20033;-68
2022/03/31 11:23:03;;;;;;;3.20;2.78;;;;;;;4.72;89.02;99932.97;5228584;28;20443;-69
2022/03/31 11:25:36;;;;;;;3.53;2.77;;;;;;;4.75;87.57;99911.25;5225570;28;20030;-75
2022/03/31 11:28:12;;;;;;;3.70;3.30;;;;;;;4.78;88.55;99911.06;5228126;28;20426;-68
2022/03/31 11:30:46;;;;;;;3.07;2.63;;;;;;;4.93;88.37;99904.25;5209419;28;20033;-69
2022/03/31 11:33:17;;;;;;;3.73;2.87;;;;;;;5.00;88.94;99913.41;5229121;28;20110;-74
2022/03/31 11:35:52;;;;;;;3.10;2.80;;;;;;;5.06;88.82;99910.47;5223700;28;20037;-72
2022/03/31 11:38:24;;;;;;;2.97;2.67;;;;;;;4.94;87.84;99906.75;5221401;28;20532;-71
2022/03/31 11:40:55;;;;;;;3.43;2.90;;;;;;;4.98;87.30;99907.44;5227039;28;20111;-75
2022/03/31 11:43:27;;;;;;;3.30;2.63;;;;;;;4.96;88.37;99899.75;5226508;28;20871;-70
2022/03/31 11:45:59;;;;;;;3.13;2.83;;;;;;;4.86;88.64;99908.91;5207816;28;20550;-76
2022/03/31 11:48:33;;;;;;;3.13;2.83;;;;;;;5.05;89.75;99903.63;5227648;28;20032;-77
2022/03/31 11:51:07;;;;;;;2.38;2.17;;;;;;;5.26;88.48;99907.75;5226665;28;20091;-77
2022/03/31 11:53:43;;;;;;;2.60;2.40;;;;;;;5.18;87.85;99897.81;5227966;28;20063;-77
2022/03/31 11:56:27;;;;;;;3.03;2.73;;;;;;;5.15;87.61;99909.16;5225489;28;20167;-70
2022/03/31 11:58:59;;;;;;;2.80;2.37;;;;;;;5.22;87.34;99909.69;5208880;28;20029;-69
2022/03/31 12:01:43;;;;;;;3.63;2.90;;;;;;;5.16;85.77;99907.41;5228544;28;20034;-69
2022/03/31 12:04:22;;;;;;;5.27;2.60;;;;;;;5.21;87.17;99905.41;5208678;28;20043;-69
2022/03/31 12:06:55;;;;;;;3.27;2.73;;;;;;;5.00;89.75;99900.44;5227431;28;20047;-70
2022/03/31 12:09:27;;;;;;;3.23;2.50;;;;;;;5.11;86.03;99897.28;5225495;28;20133;-68
2022/03/31 12:11:59;;;;;;;3.27;2.70;;;;;;;5.22;87.22;99898.47;5227815;28;20033;-70